Terminal Aerodrome Forecast
Issued by NWS Sterling, VA

Current Version | Previous Version | Graphics & Text | Print | Product List | Glossary On
Versions: 1 2 3 4 5 6 7 8 9 10 11 12 13 14 15
000
FTUS41 KLWX 181732
TAFMRB
TAF
KMRB 181732Z 1818/1918 23006KT P6SM FEW050
     FM182100 17006KT P6SM BKN050
     FM190000 10004KT P6SM BKN050
     FM190500 16004KT P6SM BKN005
     FM190900 25012G24KT P6SM BKN050
     FM191600 29022G35KT P6SM BKN040=

USA.gov is the U.S. government's official web portal to all federal, state and local government web resources and services.